createdAt,value
2022-08-26T00:03:19.300Z,92468.81
2022-08-26T00:08:21.753Z,92470.38
2022-08-26T00:13:23.908Z,92462.56
2022-08-26T00:18:27.454Z,92455.94
2022-08-26T00:23:33.350Z,92448.06
2022-08-26T00:28:35.916Z,92462.56
2022-08-26T00:33:39.665Z,92467.56
2022-08-26T00:38:42.538Z,92467.19
2022-08-26T00:43:46.339Z,92461.47
2022-08-26T00:48:53.888Z,92474.66
2022-08-26T00:54:10.730Z,92466.88
2022-08-26T00:59:14.391Z,92464.75
2022-08-26T01:04:22.898Z,92465.22
2022-08-26T01:09:25.709Z,92462.94
2022-08-26T01:14:32.634Z,92458.66
2022-08-26T01:19:49.049Z,92463.72
2022-08-26T01:24:51.393Z,92467.25
2022-08-26T01:29:53.865Z,92466.84
2022-08-26T01:34:56.070Z,92466.53
2022-08-26T01:39:59.031Z,92461.88
2022-08-26T01:45:09.941Z,92458.94
2022-08-26T01:50:27.833Z,92470.25
2022-08-26T01:55:34.194Z,92476.00
2022-08-26T02:00:37.102Z,92476.06
2022-08-26T02:05:39.294Z,92476.09
2022-08-26T02:10:42.414Z,92465.13
2022-08-26T02:15:45.803Z,92448.81
2022-08-26T02:20:51.657Z,92467.13
2022-08-26T02:26:11.248Z,92449.28
2022-08-26T02:31:13.463Z,92466.47
2022-08-26T02:36:21.238Z,92465.59
2022-08-26T02:41:23.393Z,92465.00
2022-08-26T02:46:27.919Z,92459.66
2022-08-26T02:51:32.209Z,92453.47
2022-08-26T02:56:36.051Z,92452.28
2022-08-26T03:01:39.234Z,92441.69
2022-08-26T03:06:41.655Z,92451.50
2022-08-26T03:11:43.842Z,92458.66
2022-08-26T03:16:48.533Z,92450.13
2022-08-26T03:21:53.028Z,92430.03
2022-08-26T03:27:01.972Z,92452.28
2022-08-26T03:32:09.868Z,92445.13
2022-08-26T03:37:12.783Z,92446.84
2022-08-26T03:42:16.038Z,92443.22
2022-08-26T03:47:18.363Z,92436.69
2022-08-26T03:52:20.499Z,92447.66
2022-08-26T03:57:22.663Z,92448.75
2022-08-26T04:02:26.129Z,92450.69
2022-08-26T04:07:28.345Z,92444.91
2022-08-26T04:12:34.223Z,92438.31
2022-08-26T04:17:37.164Z,92444.16
2022-08-26T04:22:39.681Z,92440.25
2022-08-26T04:27:42.806Z,92442.16
2022-08-26T04:32:45.006Z,92432.28
2022-08-26T04:37:47.982Z,92454.06
2022-08-26T04:42:50.535Z,92441.94
2022-08-26T04:47:56.494Z,92449.88
2022-08-26T04:52:59.110Z,92422.53
2022-08-26T04:58:01.691Z,92430.25
2022-08-26T05:03:03.982Z,92426.47
2022-08-26T05:08:06.484Z,92438.19
2022-08-26T05:13:10.127Z,92433.56
2022-08-26T05:18:16.470Z,92439.75
2022-08-26T05:23:19.011Z,92447.13
2022-08-26T05:28:23.077Z,92462.00
2022-08-26T05:33:25.466Z,92457.47
2022-08-26T05:38:30.150Z,92460.84
2022-08-26T05:43:32.660Z,92441.44
2022-08-26T05:48:35.343Z,92458.59
2022-08-26T05:53:40.199Z,92477.47
2022-08-26T05:58:46.341Z,92477.28
2022-08-26T06:03:51.883Z,92452.50
2022-08-26T06:08:54.261Z,92477.72
2022-08-26T06:14:03.496Z,92480.56
2022-08-26T06:19:10.524Z,92478.03
2022-08-26T06:24:33.037Z,92476.03
2022-08-26T06:29:36.709Z,92487.13
2022-08-26T06:34:39.870Z,92485.56
2022-08-26T06:39:42.086Z,92485.94
2022-08-26T06:44:44.817Z,92491.44
2022-08-26T06:49:47.330Z,92494.94
2022-08-26T06:54:50.652Z,92491.88
2022-08-26T06:59:53.206Z,92480.09
2022-08-26T07:04:56.847Z,92480.47
2022-08-26T07:09:59.879Z,92472.59
2022-08-26T07:15:02.448Z,92506.34
2022-08-26T07:20:07.815Z,92515.72
2022-08-26T07:25:11.530Z,92502.88
2022-08-26T07:30:14.731Z,92522.34
2022-08-26T07:35:17.311Z,92488.47
2022-08-26T07:40:19.642Z,92515.97
2022-08-26T07:45:22.568Z,92515.13
2022-08-26T07:50:49.417Z,92505.63
2022-08-26T07:55:49.720Z,92520.00
2022-08-26T08:00:52.426Z,92510.41
2022-08-26T08:05:59.757Z,92507.38
2022-08-26T08:11:06.745Z,92523.63
2022-08-26T08:16:12.824Z,92529.34
2022-08-26T08:21:21.226Z,92510.25
2022-08-26T08:26:26.702Z,92538.19
2022-08-26T08:36:54.490Z,92541.19
2022-08-26T08:42:11.919Z,92555.88
2022-08-26T08:47:36.106Z,92539.34
2022-08-26T08:52:42.659Z,92546.41
2022-08-26T08:58:02.485Z,92561.72
2022-08-26T09:03:30.682Z,92555.91
2022-08-26T09:08:37.090Z,92567.38
2022-08-26T09:13:48.747Z,92566.28
2022-08-26T09:19:04.766Z,92565.50
2022-08-26T09:24:07.552Z,92559.19
2022-08-26T09:29:23.566Z,92521.91
2022-08-26T09:34:28.193Z,92565.81
2022-08-26T09:39:50.239Z,92555.03
2022-08-26T09:45:06.281Z,92552.38
2022-08-26T09:50:29.396Z,92556.84
2022-08-26T09:55:31.891Z,92536.34
2022-08-26T10:00:41.340Z,92553.78
2022-08-26T10:05:59.095Z,92555.59
2022-08-26T10:11:07.187Z,92543.91
2022-08-26T10:16:30.383Z,92519.72
2022-08-26T10:21:43.408Z,92550.38
2022-08-26T10:27:07.878Z,92549.59
2022-08-26T10:32:31.362Z,92545.69
2022-08-26T10:37:38.652Z,92526.16
2022-08-26T10:42:46.641Z,92547.81
2022-08-26T10:48:02.335Z,92542.53
2022-08-26T10:53:24.928Z,92531.47
2022-08-26T10:58:32.257Z,92517.03
2022-08-26T11:03:36.536Z,92528.63
2022-08-26T11:08:56.883Z,92505.41
2022-08-26T11:14:01.685Z,92510.44
2022-08-26T11:19:04.856Z,92489.25
2022-08-26T11:24:07.069Z,92495.44
2022-08-26T11:29:12.869Z,92501.25
2022-08-26T11:34:15.630Z,92496.91
2022-08-26T11:39:20.676Z,92491.81
2022-08-26T11:44:26.494Z,92490.31
2022-08-26T11:49:31.853Z,92480.59
2022-08-26T11:54:36.304Z,92462.00
2022-08-26T11:59:40.928Z,92474.69
2022-08-26T12:04:48.635Z,92456.66
2022-08-26T12:09:58.744Z,92462.28
2022-08-26T12:15:11.595Z,92451.16
2022-08-26T12:20:48.525Z,92460.50
2022-08-26T12:25:54.343Z,92432.16
2022-08-26T12:31:29.239Z,92455.00
2022-08-26T12:36:48.782Z,92455.88
2022-08-26T12:42:02.999Z,92447.06
2022-08-26T12:47:23.387Z,92442.16
2022-08-26T12:52:59.675Z,92438.78
2022-08-26T12:58:17.002Z,92438.72
2022-08-26T13:03:34.364Z,92432.16
2022-08-26T13:08:40.514Z,92430.56
2022-08-26T13:13:42.949Z,92408.50
2022-08-26T13:18:47.012Z,92436.41
2022-08-26T13:23:49.969Z,92421.50
2022-08-26T13:29:01.976Z,92426.16
2022-08-26T13:34:04.721Z,92426.63
2022-08-26T13:39:07.280Z,92425.59
2022-08-26T13:44:10.477Z,92406.13
2022-08-26T13:49:12.882Z,92409.97
2022-08-26T13:54:15.074Z,92406.56
2022-08-26T13:59:17.524Z,92393.06
2022-08-26T14:04:26.963Z,92349.03
2022-08-26T14:09:29.959Z,92399.72
2022-08-26T14:14:32.098Z,92402.44
2022-08-26T14:19:34.345Z,92391.25
2022-08-26T14:24:36.581Z,92391.06
2022-08-26T14:29:39.414Z,92398.69
2022-08-26T14:34:42.278Z,92376.00
2022-08-26T14:39:45.550Z,92367.38
2022-08-26T14:44:53.737Z,92380.69
2022-08-26T14:49:57.068Z,92404.91
2022-08-26T14:54:59.204Z,92388.22
2022-08-26T15:00:01.354Z,92396.63
2022-08-26T15:05:05.205Z,92396.19
2022-08-26T15:10:11.402Z,92385.69
2022-08-26T15:15:16.339Z,92378.31
2022-08-26T15:20:18.521Z,92383.47
2022-08-26T15:25:21.001Z,92366.63
2022-08-26T15:30:23.187Z,92379.09
2022-08-26T15:35:25.371Z,92378.06
2022-08-26T15:40:27.561Z,92370.09
2022-08-26T15:45:32.043Z,92370.44
2022-08-26T15:50:34.861Z,92368.16
2022-08-26T15:55:36.967Z,92355.50
2022-08-26T16:00:39.542Z,92327.38
2022-08-26T16:05:46.318Z,92337.56
2022-08-26T16:10:50.623Z,92358.81
2022-08-26T16:15:53.839Z,92359.28
2022-08-26T16:21:13.308Z,92356.84
2022-08-26T16:26:19.117Z,92368.59
2022-08-26T16:31:22.080Z,92342.06
2022-08-26T16:36:24.410Z,92340.03
2022-08-26T16:41:29.073Z,92367.09
2022-08-26T16:46:32.154Z,92359.88
2022-08-26T16:51:38.086Z,92375.75
2022-08-26T16:56:40.705Z,92356.13
2022-08-26T17:01:43.058Z,92367.88
2022-08-26T17:06:45.810Z,92357.63
2022-08-26T17:11:48.005Z,92345.13
2022-08-26T17:16:53.621Z,92355.91
2022-08-26T17:21:55.748Z,92352.88
2022-08-26T17:26:57.905Z,92343.63
2022-08-26T17:32:00.398Z,92360.94
2022-08-26T17:37:02.578Z,92358.41
2022-08-26T17:42:05.114Z,92363.31
2022-08-26T17:47:07.334Z,92340.41
2022-08-26T17:52:11.550Z,92346.66
2022-08-26T17:57:14.273Z,92348.66
2022-08-26T18:02:16.829Z,92347.88
2022-08-26T18:07:19.743Z,92356.72
2022-08-26T18:12:23.174Z,92362.63
2022-08-26T18:17:30.179Z,92332.88
2022-08-26T18:22:32.314Z,92360.00
2022-08-26T18:27:37.418Z,92356.47
2022-08-26T18:32:39.784Z,92356.75
2022-08-26T18:37:42.948Z,92365.44
2022-08-26T18:42:45.135Z,92344.16
2022-08-26T18:47:52.106Z,92363.22
2022-08-26T18:52:54.764Z,92367.84
2022-08-26T18:57:57.260Z,92372.97
2022-08-26T19:02:59.771Z,92370.47
2022-08-26T19:08:03.479Z,92371.16
2022-08-26T19:13:09.393Z,92354.44
2022-08-26T19:18:17.730Z,92378.28
2022-08-26T19:23:31.436Z,92379.47
2022-08-26T19:28:35.276Z,92390.38
2022-08-26T19:33:43.117Z,92391.88
2022-08-26T19:38:46.108Z,92394.66
2022-08-26T19:43:48.419Z,92403.28
2022-08-26T19:48:54.116Z,92401.69
2022-08-26T19:54:01.666Z,92402.09
2022-08-26T19:59:03.825Z,92386.09
2022-08-26T20:04:06.406Z,92405.22
2022-08-26T20:09:08.825Z,92400.13
2022-08-26T20:14:11.028Z,92394.28
2022-08-26T20:19:36.835Z,92405.47
2022-08-26T20:24:39.622Z,92405.91
2022-08-26T20:29:43.109Z,92404.28
2022-08-26T20:34:45.255Z,92406.31
2022-08-26T20:39:48.843Z,92410.53
2022-08-26T20:44:54.706Z,92405.09
2022-08-26T20:49:57.285Z,92398.09
2022-08-26T20:54:59.550Z,92402.44
2022-08-26T21:00:01.770Z,92402.06
2022-08-26T21:05:05.062Z,92402.91
2022-08-26T21:10:07.576Z,92421.22
2022-08-26T21:15:10.700Z,92414.59
2022-08-26T21:20:12.822Z,92410.31
2022-08-26T21:25:14.997Z,92420.75
2022-08-26T21:30:17.284Z,92414.13
2022-08-26T21:35:19.626Z,92420.44
2022-08-26T21:40:22.061Z,92401.72
2022-08-26T21:45:24.310Z,92423.16
2022-08-26T21:50:29.544Z,92411.81
2022-08-26T21:55:35.833Z,92422.72
2022-08-26T22:00:38.494Z,92410.03
2022-08-26T22:05:51.380Z,92415.03
2022-08-26T22:10:55.058Z,92413.88
2022-08-26T22:15:59.069Z,92420.97
2022-08-26T22:21:06.022Z,92406.09
2022-08-26T22:26:10.739Z,92404.88
2022-08-26T22:31:14.571Z,92404.16
2022-08-26T22:36:20.638Z,92415.06
2022-08-26T22:41:23.494Z,92409.47
2022-08-26T22:46:27.097Z,92411.66
2022-08-26T22:51:29.904Z,92402.38
2022-08-26T22:56:32.262Z,92408.03
2022-08-26T23:01:37.322Z,92406.41
2022-08-26T23:06:42.701Z,92404.13
2022-08-26T23:11:46.436Z,92398.81
2022-08-26T23:16:48.721Z,92393.22
2022-08-26T23:21:51.319Z,92381.94
2022-08-26T23:26:54.136Z,92383.31
2022-08-26T23:31:56.435Z,92397.81
2022-08-26T23:37:00.190Z,92398.47
2022-08-26T23:42:03.793Z,92393.63
2022-08-26T23:47:06.555Z,92391.06
2022-08-26T23:52:29.865Z,92353.91
2022-08-26T23:57:33.265Z,92385.53
